Time;durP1;ratioP1;P1;durP2;ratioP2;P2;SDS_P1;SDS_P2;PMS_P1;PMS_P2;Temp;Humidity;BMP_temperature;BMP_pressure;BME280_temperature;BME280_humidity;BME280_pressure;Samples;Min_cycle;Max_cycle;Signal;HPM_P1;HPM_P2
2024/03/01 00:00:46;;;;;;;33.83;20.85;;;;;;;;;;5910400;28;20510;-81
2024/03/01 00:03:37;;;;;;;35.13;19.08;;;;;;;;;;5908601;28;20512;-81
2024/03/01 00:06:28;;;;;;;24.05;16.90;;;;;;;;;;5909519;28;20123;-80
2024/03/01 00:09:19;;;;;;;22.40;14.90;;;;;;;;;;5891694;28;20410;-81
2024/03/01 00:12:10;;;;;;;39.20;16.38;;;;;;;;;;5891574;28;20060;-80
2024/03/01 00:15:01;;;;;;;26.65;14.88;;;;;;;;;;5891770;28;20052;-80
2024/03/01 00:17:52;;;;;;;21.88;15.27;;;;;;;;;;5908594;28;20048;-81
2024/03/01 00:20:43;;;;;;;19.15;12.70;;;;;;;;;;5908136;28;20160;-81
2024/03/01 00:23:34;;;;;;;21.75;14.45;;;;;;;;;;5907812;28;20119;-81
2024/03/01 00:26:25;;;;;;;32.58;17.73;;;;;;;;;;5907924;28;20052;-81
2024/03/01 00:29:15;;;;;;;55.08;22.05;;;;;;;;;;5890926;28;20067;-80
2024/03/01 00:32:06;;;;;;;27.13;15.95;;;;;;;;;;5891062;28;20406;-80
2024/03/01 00:34:57;;;;;;;63.97;28.27;;;;;;;;;;5891897;28;20082;-80
2024/03/01 00:37:48;;;;;;;34.92;18.90;;;;;;;;;;5908811;28;20044;-80
2024/03/01 00:40:39;;;;;;;42.30;16.55;;;;;;;;;;5909080;28;20044;-80
2024/03/01 00:43:30;;;;;;;24.63;16.80;;;;;;;;;;5907422;28;20051;-80
2024/03/01 00:46:21;;;;;;;27.00;16.33;;;;;;;;;;5890809;28;20549;-80
2024/03/01 00:49:13;;;;;;;23.85;14.50;;;;;;;;;;5907189;28;20052;-80
2024/03/01 00:52:04;;;;;;;19.55;14.50;;;;;;;;;;5890764;28;20131;-80
2024/03/01 00:54:55;;;;;;;33.65;18.10;;;;;;;;;;5875216;28;20661;-81
2024/03/01 00:57:46;;;;;;;34.55;17.65;;;;;;;;;;5890508;28;20131;-80
2024/03/01 01:00:36;;;;;;;20.30;15.52;;;;;;;;;;5908358;28;20048;-81
2024/03/01 01:03:27;;;;;;;23.65;14.73;;;;;;;;;;5895101;28;20055;-81
2024/03/01 01:06:18;;;;;;;43.50;20.52;;;;;;;;;;5908272;28;20371;-80
2024/03/01 01:09:10;;;;;;;30.23;18.23;;;;;;;;;;5906742;28;20048;-81
2024/03/01 01:12:01;;;;;;;33.10;16.83;;;;;;;;;;5908305;28;20521;-80
2024/03/01 01:14:52;;;;;;;21.90;15.88;;;;;;;;;;5907607;28;20144;-80
2024/03/01 01:17:44;;;;;;;23.10;14.85;;;;;;;;;;5890107;28;20049;-80
2024/03/01 01:20:35;;;;;;;22.27;14.57;;;;;;;;;;5908203;28;20040;-80
2024/03/01 01:23:26;;;;;;;27.63;16.40;;;;;;;;;;5874406;28;20037;-80
2024/03/01 01:26:17;;;;;;;32.33;20.02;;;;;;;;;;5907605;28;20048;-80
2024/03/01 01:29:08;;;;;;;22.00;15.43;;;;;;;;;;5907478;28;20048;-80
2024/03/01 01:31:59;;;;;;;24.13;14.98;;;;;;;;;;5891588;28;20076;-81
2024/03/01 01:34:50;;;;;;;28.38;15.45;;;;;;;;;;5890841;28;20052;-80
2024/03/01 01:37:41;;;;;;;111.10;44.30;;;;;;;;;;5906763;28;20431;-80
2024/03/01 01:40:32;;;;;;;56.28;26.60;;;;;;;;;;5890045;28;20187;-80
2024/03/01 01:43:23;;;;;;;60.92;25.73;;;;;;;;;;5906387;28;20052;-80
2024/03/01 01:46:16;;;;;;;25.15;16.63;;;;;;;;;;5906660;28;20055;-80
2024/03/01 01:49:06;;;;;;;61.40;36.10;;;;;;;;;;5906629;28;20063;-80
2024/03/01 01:51:58;;;;;;;42.70;24.92;;;;;;;;;;5907118;28;20545;-80
2024/03/01 01:54:49;;;;;;;51.78;26.05;;;;;;;;;;5906785;28;20044;-80
2024/03/01 01:57:43;;;;;;;35.42;18.52;;;;;;;;;;5890225;28;20072;-80
2024/03/01 02:00:34;;;;;;;37.45;21.27;;;;;;;;;;5890784;28;20508;-80
2024/03/01 02:03:27;;;;;;;22.08;16.17;;;;;;;;;;5890436;28;20382;-80
2024/03/01 02:06:20;;;;;;;30.27;15.80;;;;;;;;;;5889711;28;20048;-80
2024/03/01 02:09:17;;;;;;;25.27;14.23;;;;;;;;;;5907780;28;20052;-80
2024/03/01 02:12:09;;;;;;;18.55;14.27;;;;;;;;;;5890574;28;20060;-80
2024/03/01 02:15:00;;;;;;;22.35;14.70;;;;;;;;;;5910966;28;20690;-80
2024/03/01 02:17:51;;;;;;;53.10;24.90;;;;;;;;;;5894736;28;20052;-80
2024/03/01 02:21:10;;;;;;;44.20;25.40;;;;;;;;;;5893984;28;20044;-80
2024/03/01 02:24:03;;;;;;;52.88;25.75;;;;;;;;;;5894350;28;20442;-80
2024/03/01 02:26:57;;;;;;;35.08;19.58;;;;;;;;;;5910938;28;20629;-80
2024/03/01 02:29:52;;;;;;;20.33;13.25;;;;;;;;;;5911122;28;20625;-80
2024/03/01 02:32:43;;;;;;;18.17;13.60;;;;;;;;;;5911454;28;20049;-80
2024/03/01 02:35:34;;;;;;;36.35;18.55;;;;;;;;;;5910440;28;20210;-80
2024/03/01 02:38:24;;;;;;;20.63;12.88;;;;;;;;;;5911405;28;20056;-80
2024/03/01 02:41:15;;;;;;;19.27;13.75;;;;;;;;;;5893643;28;20045;-80
2024/03/01 02:44:06;;;;;;;22.98;13.13;;;;;;;;;;5911616;28;20609;-80
2024/03/01 02:46:57;;;;;;;19.88;14.45;;;;;;;;;;5910908;28;20068;-80
2024/03/01 02:49:48;;;;;;;23.13;13.68;;;;;;;;;;5893779;28;20670;-80
2024/03/01 02:52:40;;;;;;;18.67;15.57;;;;;;;;;;5893565;28;20533;-80
2024/03/01 02:55:31;;;;;;;20.25;13.88;;;;;;;;;;5893391;28;20037;-80
2024/03/01 02:58:22;;;;;;;13.77;11.95;;;;;;;;;;5893202;28;20051;-80
2024/03/01 03:01:14;;;;;;;15.73;11.95;;;;;;;;;;5909779;28;20355;-79
2024/03/01 03:04:05;;;;;;;23.17;11.82;;;;;;;;;;5909918;28;20163;-79
2024/03/01 03:06:59;;;;;;;24.92;13.98;;;;;;;;;;5910024;28;20041;-79
2024/03/01 03:09:59;;;;;;;12.43;11.05;;;;;;;;;;5909568;28;20127;-79
2024/03/01 03:12:50;;;;;;;18.33;12.45;;;;;;;;;;5909736;28;20055;-80
2024/03/01 03:15:41;;;;;;;16.17;12.48;;;;;;;;;;5910919;28;20614;-80
2024/03/01 03:18:32;;;;;;;25.90;13.93;;;;;;;;;;5892880;28;20040;-80
2024/03/01 03:21:23;;;;;;;16.90;12.20;;;;;;;;;;5892965;28;20041;-80
2024/03/01 03:24:14;;;;;;;13.82;12.35;;;;;;;;;;5910720;28;20414;-80
2024/03/01 03:27:06;;;;;;;9.90;8.55;;;;;;;;;;5876018;28;20044;-79
2024/03/01 03:29:56;;;;;;;11.35;9.27;;;;;;;;;;5892984;28;20045;-79
2024/03/01 03:32:47;;;;;;;12.95;9.90;;;;;;;;;;5892321;28;20051;-79
2024/03/01 03:35:38;;;;;;;13.80;8.02;;;;;;;;;;5910482;28;20044;-80
2024/03/01 03:38:29;;;;;;;10.73;6.70;;;;;;;;;;5892731;28;20044;-79
2024/03/01 03:41:20;;;;;;;17.27;7.90;;;;;;;;;;5910287;28;20422;-79
2024/03/01 03:44:10;;;;;;;17.00;10.13;;;;;;;;;;5908772;28;20071;-79
2024/03/01 03:47:01;;;;;;;12.85;9.43;;;;;;;;;;5909114;28;20048;-79
2024/03/01 03:49:52;;;;;;;17.80;11.60;;;;;;;;;;5909364;28;20391;-79
2024/03/01 03:52:44;;;;;;;12.93;9.15;;;;;;;;;;5875655;28;20072;-80
2024/03/01 03:55:35;;;;;;;21.80;10.57;;;;;;;;;;5908465;28;20044;-79
2024/03/01 03:58:26;;;;;;;14.93;8.77;;;;;;;;;;5908371;28;20121;-80
2024/03/01 04:01:19;;;;;;;18.83;11.48;;;;;;;;;;5908504;28;20048;-79
2024/03/01 04:04:13;;;;;;;13.50;11.23;;;;;;;;;;5892061;28;20133;-79
2024/03/01 04:07:04;;;;;;;25.38;16.23;;;;;;;;;;5909463;28;20128;-79
2024/03/01 04:09:55;;;;;;;19.15;15.00;;;;;;;;;;5892747;28;20656;-80
2024/03/01 04:12:46;;;;;;;24.10;14.30;;;;;;;;;;5909266;28;20044;-80
2024/03/01 04:15:37;;;;;;;14.52;11.32;;;;;;;;;;5908888;28;20494;-80
2024/03/01 04:18:28;;;;;;;25.67;15.30;;;;;;;;;;5892158;28;20473;-80
2024/03/01 04:21:20;;;;;;;19.98;12.23;;;;;;;;;;5908677;28;20075;-80
2024/03/01 04:24:11;;;;;;;18.77;13.15;;;;;;;;;;5892091;28;20498;-80
2024/03/01 04:27:03;;;;;;;23.65;13.45;;;;;;;;;;5891616;28;20045;-79
2024/03/01 04:29:54;;;;;;;21.98;13.77;;;;;;;;;;5908272;28;20048;-80
2024/03/01 04:32:45;;;;;;;16.60;12.10;;;;;;;;;;5891010;28;20411;-80
2024/03/01 04:35:36;;;;;;;21.65;11.88;;;;;;;;;;5909000;28;20144;-80
2024/03/01 04:38:27;;;;;;;16.95;12.88;;;;;;;;;;5890219;28;20063;-80
2024/03/01 04:41:20;;;;;;;18.67;14.13;;;;;;;;;;5907639;28;20157;-80
2024/03/01 04:44:11;;;;;;;16.95;13.68;;;;;;;;;;5891231;28;20056;-82
2024/03/01 04:47:02;;;;;;;29.52;17.45;;;;;;;;;;5907643;28;20068;-79
2024/03/01 04:49:53;;;;;;;36.60;21.75;;;;;;;;;;5907967;28;20490;-79
2024/03/01 04:52:44;;;;;;;26.70;13.13;;;;;;;;;;5890954;28;20045;-79
2024/03/01 04:55:35;;;;;;;20.55;11.98;;;;;;;;;;5908760;28;20043;-80
2024/03/01 04:58:26;;;;;;;20.30;13.00;;;;;;;;;;5907301;28;20161;-79
2024/03/01 05:01:17;;;;;;;24.17;12.38;;;;;;;;;;5891500;28;20049;-79
2024/03/01 05:04:08;;;;;;;28.88;16.15;;;;;;;;;;5909313;28;20055;-79
2024/03/01 05:06:59;;;;;;;31.70;22.20;;;;;;;;;;5908351;28;20052;-80
2024/03/01 05:09:50;;;;;;;25.98;17.08;;;;;;;;;;5891214;28;20059;-80
2024/03/01 05:12:42;;;;;;;16.30;12.65;;;;;;;;;;5907084;28;20040;-80
2024/03/01 05:15:33;;;;;;;23.48;14.82;;;;;;;;;;5890303;28;20402;-79
2024/03/01 05:18:24;;;;;;;29.52;19.20;;;;;;;;;;5890731;28;20079;-80
2024/03/01 05:21:14;;;;;;;23.38;12.43;;;;;;;;;;5906886;28;20372;-79
2024/03/01 05:24:05;;;;;;;31.08;24.15;;;;;;;;;;5907407;28;20044;-79
2024/03/01 05:26:57;;;;;;;25.45;13.63;;;;;;;;;;5907501;28;20054;-79
2024/03/01 05:29:48;;;;;;;33.78;18.17;;;;;;;;;;5890669;28;20044;-79
2024/03/01 05:32:43;;;;;;;24.75;21.45;;;;;;;;;;5889949;28;20548;-79
2024/03/01 05:35:35;;;;;;;18.20;15.80;;;;;;;;;;5906979;28;20125;-79
2024/03/01 05:38:26;;;;;;;24.58;11.68;;;;;;;;;;5890155;28;20048;-80
2024/03/01 05:41:16;;;;;;;22.65;13.25;;;;;;;;;;5908040;28;20053;-80
2024/03/01 05:44:08;;;;;;;21.75;13.75;;;;;;;;;;5906850;28;20114;-79
2024/03/01 05:47:00;;;;;;;42.78;17.17;;;;;;;;;;5908570;28;20049;-80
2024/03/01 05:49:51;;;;;;;20.67;13.38;;;;;;;;;;5910993;28;20051;-79
2024/03/01 05:52:43;;;;;;;22.05;13.88;;;;;;;;;;5911412;28;20044;-80
2024/03/01 05:55:35;;;;;;;21.17;13.30;;;;;;;;;;5911436;28;20045;-79
2024/03/01 05:58:26;;;;;;;20.95;13.40;;;;;;;;;;5894452;28;20572;-79
2024/03/01 06:01:18;;;;;;;23.85;15.65;;;;;;;;;;5912433;28;20103;-79
2024/03/01 06:04:12;;;;;;;23.20;13.30;;;;;;;;;;5894850;28;20045;-80
2024/03/01 06:07:02;;;;;;;13.77;11.43;;;;;;;;;;5913829;28;20047;-79
2024/03/01 06:09:54;;;;;;;15.75;11.40;;;;;;;;;;5913603;28;20514;-80
2024/03/01 06:12:45;;;;;;;14.10;12.10;;;;;;;;;;5912690;28;20044;-80
2024/03/01 06:15:35;;;;;;;25.58;13.93;;;;;;;;;;5894287;28;20049;-80
2024/03/01 06:18:26;;;;;;;12.05;10.55;;;;;;;;;;5910891;28;20052;-80
2024/03/01 06:21:25;;;;;;;25.33;14.75;;;;;;;;;;5894237;28;20041;-79
2024/03/01 06:24:16;;;;;;;16.85;13.13;;;;;;;;;;5894192;28;20202;-80
2024/03/01 06:27:07;;;;;;;28.85;15.00;;;;;;;;;;5910304;28;20053;-79
2024/03/01 06:30:03;;;;;;;22.95;13.85;;;;;;;;;;5894922;28;20502;-80
2024/03/01 06:32:57;;;;;;;19.27;14.73;;;;;;;;;;5911272;28;20040;-80
2024/03/01 06:35:48;;;;;;;16.83;13.48;;;;;;;;;;5880273;28;20194;-80
2024/03/01 06:38:39;;;;;;;25.17;16.85;;;;;;;;;;5915624;28;20044;-79
2024/03/01 06:41:30;;;;;;;14.93;12.20;;;;;;;;;;5897200;28;20044;-80
2024/03/01 06:44:25;;;;;;;21.52;15.52;;;;;;;;;;5897486;28;20402;-80
2024/03/01 06:47:16;;;;;;;24.88;16.88;;;;;;;;;;5915345;28;20149;-80
2024/03/01 06:50:12;;;;;;;14.00;11.93;;;;;;;;;;5915991;28;20048;-79
2024/03/01 06:53:03;;;;;;;16.90;12.32;;;;;;;;;;5898243;28;20062;-80
2024/03/01 06:55:55;;;;;;;18.27;14.15;;;;;;;;;;5916127;28;20040;-79
2024/03/01 06:58:45;;;;;;;30.63;19.20;;;;;;;;;;5901114;28;20044;-80
2024/03/01 07:01:39;;;;;;;28.27;15.55;;;;;;;;;;5913097;28;20110;-80
2024/03/01 07:04:30;;;;;;;20.52;14.18;;;;;;;;;;5910939;28;20123;-80
2024/03/01 07:07:21;;;;;;;20.55;15.75;;;;;;;;;;5910707;28;20103;-80
2024/03/01 07:10:12;;;;;;;23.42;16.23;;;;;;;;;;5913628;28;20049;-80
2024/03/01 07:13:03;;;;;;;29.17;20.08;;;;;;;;;;5897655;28;20075;-79
2024/03/01 07:15:57;;;;;;;23.98;16.92;;;;;;;;;;5900844;28;20510;-80
2024/03/01 07:18:48;;;;;;;38.38;19.55;;;;;;;;;;5915142;28;20049;-80
2024/03/01 07:21:38;;;;;;;31.38;18.75;;;;;;;;;;5898638;28;20100;-80
2024/03/01 07:24:29;;;;;;;20.77;15.07;;;;;;;;;;5914048;28;20410;-80
2024/03/01 07:27:20;;;;;;;22.88;13.60;;;;;;;;;;5913361;28;20064;-79
2024/03/01 07:30:12;;;;;;;23.67;14.55;;;;;;;;;;5897405;28;20124;-80
2024/03/01 07:33:03;;;;;;;14.80;12.20;;;;;;;;;;5897488;28;20056;-79
2024/03/01 07:35:54;;;;;;;21.25;12.93;;;;;;;;;;5914580;28;20048;-80
2024/03/01 07:38:45;;;;;;;16.00;11.88;;;;;;;;;;5897665;28;20463;-81
2024/03/01 07:41:36;;;;;;;25.33;11.93;;;;;;;;;;5916721;28;20080;-80
2024/03/01 07:44:27;;;;;;;24.42;12.13;;;;;;;;;;5914246;28;20041;-80
2024/03/01 07:47:18;;;;;;;20.67;13.40;;;;;;;;;;5911796;28;20056;-80
2024/03/01 07:50:09;;;;;;;27.08;16.00;;;;;;;;;;5897933;28;20072;-79
2024/03/01 07:53:00;;;;;;;34.28;16.90;;;;;;;;;;5913572;28;20062;-80
2024/03/01 07:55:51;;;;;;;23.83;12.80;;;;;;;;;;5912200;28;20044;-81
2024/03/01 07:58:42;;;;;;;21.48;13.65;;;;;;;;;;5909524;28;20041;-80
2024/03/01 08:01:33;;;;;;;17.88;12.68;;;;;;;;;;5908618;28;20586;-81
2024/03/01 08:04:24;;;;;;;32.70;14.32;;;;;;;;;;5892101;28;20144;-80
2024/03/01 08:07:15;;;;;;;19.60;13.45;;;;;;;;;;5908412;28;20135;-80
2024/03/01 08:10:14;;;;;;;29.67;18.25;;;;;;;;;;5909365;28;20057;-80
2024/03/01 08:13:05;;;;;;;20.10;13.32;;;;;;;;;;5892357;28;20482;-80
2024/03/01 08:15:57;;;;;;;17.50;13.23;;;;;;;;;;5893692;28;20178;-81
2024/03/01 08:18:48;;;;;;;24.02;12.32;;;;;;;;;;5892552;28;20051;-81
2024/03/01 08:21:39;;;;;;;25.77;10.52;;;;;;;;;;5892725;28;20598;-80
2024/03/01 08:24:31;;;;;;;13.95;11.65;;;;;;;;;;5875990;28;20137;-81
2024/03/01 08:27:25;;;;;;;33.72;17.35;;;;;;;;;;5909633;28;20090;-80
2024/03/01 08:30:45;;;;;;;21.60;12.40;;;;;;;;;;5909778;28;20048;-81
2024/03/01 08:33:43;;;;;;;25.00;14.90;;;;;;;;;;5910344;27;20743;-81
2024/03/01 08:36:35;;;;;;;22.10;12.48;;;;;;;;;;5883913;28;20045;-81
2024/03/01 08:39:27;;;;;;;31.63;15.43;;;;;;;;;;5886212;28;20563;-81
2024/03/01 08:42:18;;;;;;;19.13;10.95;;;;;;;;;;5852768;28;20137;-81
2024/03/01 08:45:21;;;;;;;23.70;13.48;;;;;;;;;;5887717;28;20567;-81
2024/03/01 08:48:19;;;;;;;22.40;14.07;;;;;;;;;;5885645;28;20064;-81
2024/03/01 08:51:10;;;;;;;38.28;23.52;;;;;;;;;;5885258;28;20487;-81
2024/03/01 08:54:06;;;;;;;25.52;14.25;;;;;;;;;;5885266;28;20041;-81
2024/03/01 08:57:22;;;;;;;24.35;13.00;;;;;;;;;;5885536;28;20080;-81
2024/03/01 09:00:38;;;;;;;16.10;11.98;;;;;;;;;;5884210;28;20052;-80
2024/03/01 09:03:30;;;;;;;23.40;11.90;;;;;;;;;;5883510;28;20107;-81
2024/03/01 09:06:21;;;;;;;21.95;14.18;;;;;;;;;;5863992;28;20239;-81
2024/03/01 09:09:23;;;;;;;30.95;15.68;;;;;;;;;;5880101;28;20084;-81
2024/03/01 09:12:27;;;;;;;25.98;14.95;;;;;;;;;;5881513;28;20102;-81
2024/03/01 09:15:23;;;;;;;16.23;12.45;;;;;;;;;;5881293;28;20179;-81
2024/03/01 09:18:44;;;;;;;21.95;12.48;;;;;;;;;;5882127;28;20053;-81
2024/03/01 09:21:43;;;;;;;19.42;13.45;;;;;;;;;;5879640;28;20045;-81
2024/03/01 09:24:38;;;;;;;27.00;13.50;;;;;;;;;;5883626;28;20037;-82
2024/03/01 09:27:32;;;;;;;22.15;12.20;;;;;;;;;;5883136;28;20045;-82
2024/03/01 09:30:23;;;;;;;19.45;11.77;;;;;;;;;;5867175;28;20045;-81
2024/03/01 09:33:20;;;;;;;17.23;11.80;;;;;;;;;;5884268;28;20041;-81
2024/03/01 09:36:19;;;;;;;22.80;11.95;;;;;;;;;;5884434;28;20625;-81
2024/03/01 09:39:11;;;;;;;23.63;11.20;;;;;;;;;;5884445;28;20128;-81
2024/03/01 09:42:30;;;;;;;19.67;12.90;;;;;;;;;;5883346;28;20045;-80
2024/03/01 09:45:52;;;;;;;18.52;10.23;;;;;;;;;;5868614;28;20063;-81
2024/03/01 09:49:25;;;;;;;18.75;11.73;;;;;;;;;;5871431;28;20049;-81
2024/03/01 09:53:07;;;;;;;16.33;9.52;;;;;;;;;;5817965;28;20123;-81
2024/03/01 09:56:34;;;;;;;16.48;10.63;;;;;;;;;;5841889;28;20049;-81
2024/03/01 09:59:54;;;;;;;12.93;9.70;;;;;;;;;;5841154;28;20072;-81
2024/03/01 10:03:22;;;;;;;17.70;10.85;;;;;;;;;;5840278;28;20050;-81
2024/03/01 10:07:12;;;;;;;17.63;9.80;;;;;;;;;;5839550;28;20050;-81
2024/03/01 10:10:03;;;;;;;16.55;9.35;;;;;;;;;;5848005;28;20115;-81
2024/03/01 10:13:10;;;;;;;15.32;9.68;;;;;;;;;;5841654;28;20129;-81
2024/03/01 10:16:10;;;;;;;14.27;9.07;;;;;;;;;;5840295;28;20872;-80
2024/03/01 10:19:11;;;;;;;19.27;9.75;;;;;;;;;;5839825;28;20045;-80
2024/03/01 10:22:45;;;;;;;15.95;9.40;;;;;;;;;;5839940;28;20054;-80
2024/03/01 10:26:11;;;;;;;13.98;8.30;;;;;;;;;;5840296;28;20446;-81
2024/03/01 10:29:52;;;;;;;15.75;9.52;;;;;;;;;;5856348;28;20045;-80
2024/03/01 10:33:07;;;;;;;16.88;9.57;;;;;;;;;;5864469;28;20132;-81
2024/03/01 10:36:28;;;;;;;17.67;9.75;;;;;;;;;;5864904;28;20051;-81
2024/03/01 10:39:35;;;;;;;15.90;9.70;;;;;;;;;;5834418;28;20054;-81
2024/03/01 10:42:29;;;;;;;14.25;8.75;;;;;;;;;;5862775;28;20049;-81
2024/03/01 10:45:29;;;;;;;16.98;9.43;;;;;;;;;;5862504;28;20053;-81
2024/03/01 10:48:20;;;;;;;15.90;9.40;;;;;;;;;;5862627;28;20049;-80
2024/03/01 10:51:15;;;;;;;13.48;9.10;;;;;;;;;;5863727;28;20053;-80
2024/03/01 10:54:09;;;;;;;18.92;11.25;;;;;;;;;;5862125;28;20053;-80
2024/03/01 10:57:02;;;;;;;21.38;11.57;;;;;;;;;;5861846;28;20076;-81
2024/03/01 11:00:06;;;;;;;19.75;10.25;;;;;;;;;;5862075;28;20049;-81
2024/03/01 11:03:32;;;;;;;15.30;8.95;;;;;;;;;;5831573;28;20664;-81
2024/03/01 11:06:23;;;;;;;28.80;9.25;;;;;;;;;;5859817;28;20060;-80
2024/03/01 11:09:29;;;;;;;13.45;8.30;;;;;;;;;;5863446;28;20049;-80
2024/03/01 11:12:35;;;;;;;22.67;8.45;;;;;;;;;;5862719;28;20052;-79
2024/03/01 11:15:29;;;;;;;14.68;8.45;;;;;;;;;;5862831;28;20041;-79
2024/03/01 11:18:26;;;;;;;11.55;7.68;;;;;;;;;;5861768;28;20049;-80
2024/03/01 11:21:20;;;;;;;21.05;8.85;;;;;;;;;;5862990;28;20061;-79
2024/03/01 11:24:19;;;;;;;19.17;10.07;;;;;;;;;;5861772;28;20503;-80
2024/03/01 11:27:18;;;;;;;14.98;8.98;;;;;;;;;;5861563;28;20041;-80
2024/03/01 11:30:13;;;;;;;14.02;8.88;;;;;;;;;;5862163;28;20052;-79
2024/03/01 11:33:05;;;;;;;19.38;9.68;;;;;;;;;;5861325;28;20124;-79
2024/03/01 11:36:20;;;;;;;17.52;10.68;;;;;;;;;;5862156;28;20100;-80
2024/03/01 11:39:19;;;;;;;20.90;9.82;;;;;;;;;;5861253;28;20049;-79
2024/03/01 11:42:52;;;;;;;21.20;9.90;;;;;;;;;;5862753;28;20073;-79
2024/03/01 11:46:26;;;;;;;16.50;9.80;;;;;;;;;;5862534;28;20050;-80
2024/03/01 11:49:42;;;;;;;11.43;8.25;;;;;;;;;;5856767;28;20045;-79
2024/03/01 11:52:47;;;;;;;23.17;10.15;;;;;;;;;;5862307;28;20045;-80
2024/03/01 11:56:01;;;;;;;16.23;10.35;;;;;;;;;;5862555;28;20049;-80
2024/03/01 11:59:02;;;;;;;22.42;10.13;;;;;;;;;;5854785;28;20509;-80
2024/03/01 12:02:16;;;;;;;13.13;8.80;;;;;;;;;;5862084;28;20049;-80
2024/03/01 12:05:48;;;;;;;15.05;9.18;;;;;;;;;;5839080;28;20107;-80
2024/03/01 12:09:12;;;;;;;15.60;9.60;;;;;;;;;;5839344;28;20584;-80
2024/03/01 12:12:32;;;;;;;17.67;10.00;;;;;;;;;;5839146;28;20404;-79
2024/03/01 12:15:53;;;;;;;29.83;9.05;;;;;;;;;;5837871;28;20053;-80
2024/03/01 12:18:55;;;;;;;19.23;8.98;;;;;;;;;;5837732;28;20050;-80
2024/03/01 12:22:23;;;;;;;18.92;9.15;;;;;;;;;;5837730;28;20507;-80
2024/03/01 12:25:15;;;;;;;13.23;8.05;;;;;;;;;;5857026;28;20053;-80
2024/03/01 12:28:44;;;;;;;107.93;36.97;;;;;;;;;;5860696;28;20045;-80
2024/03/01 12:31:46;;;;;;;23.15;12.02;;;;;;;;;;5860297;28;20478;-81
2024/03/01 12:35:17;;;;;;;15.27;9.80;;;;;;;;;;5876886;28;20519;-80
2024/03/01 12:38:33;;;;;;;9.13;6.25;;;;;;;;;;5861828;28;20049;-80
2024/03/01 12:41:48;;;;;;;12.55;8.63;;;;;;;;;;5861301;28;20511;-80
2024/03/01 12:45:17;;;;;;;42.47;14.13;;;;;;;;;;5860989;28;20056;-80
2024/03/01 12:48:31;;;;;;;29.38;10.52;;;;;;;;;;5860484;28;20054;-80
2024/03/01 12:51:30;;;;;;;25.02;8.15;;;;;;;;;;5861798;28;20072;-81
2024/03/01 12:54:33;;;;;;;19.08;9.57;;;;;;;;;;5862364;28;20063;-80
2024/03/01 12:57:32;;;;;;;18.88;8.15;;;;;;;;;;5861232;28;20041;-80
2024/03/01 13:00:27;;;;;;;12.98;7.22;;;;;;;;;;5861314;28;20045;-82
2024/03/01 13:03:56;;;;;;;28.35;9.93;;;;;;;;;;5877701;28;20476;-80
2024/03/01 13:06:48;;;;;;;16.38;8.25;;;;;;;;;;5862328;28;20041;-80
2024/03/01 13:09:48;;;;;;;15.93;9.00;;;;;;;;;;5845028;28;20048;-80
2024/03/01 13:12:41;;;;;;;22.00;9.32;;;;;;;;;;5860934;28;20049;-80
2024/03/01 13:15:46;;;;;;;14.23;8.98;;;;;;;;;;5861380;28;20037;-80
2024/03/01 13:18:44;;;;;;;21.50;7.95;;;;;;;;;;5862305;28;20045;-80
2024/03/01 13:21:57;;;;;;;31.40;8.45;;;;;;;;;;5866865;28;20042;-82
2024/03/01 13:25:24;;;;;;;16.85;8.88;;;;;;;;;;5866845;28;20045;-80
2024/03/01 13:28:25;;;;;;;18.75;9.40;;;;;;;;;;5839603;28;20057;-80
2024/03/01 13:31:25;;;;;;;15.02;7.68;;;;;;;;;;5842071;28;20053;-80
2024/03/01 13:34:24;;;;;;;14.55;8.30;;;;;;;;;;5841795;28;20068;-81
2024/03/01 13:37:27;;;;;;;12.18;8.45;;;;;;;;;;5842361;28;20420;-80
2024/03/01 13:40:33;;;;;;;18.42;9.05;;;;;;;;;;5841662;28;20068;-80
2024/03/01 13:43:31;;;;;;;17.15;8.02;;;;;;;;;;5841674;28;20045;-80
2024/03/01 13:46:29;;;;;;;;;;;;;;;;;;5843443;28;20177;-80
2024/03/01 13:49:28;;;;;;;20.25;9.48;;;;;;;;;;5842774;28;19928;-80
2024/03/01 13:52:19;;;;;;;16.85;9.63;;;;;;;;;;5842207;28;20143;-80
2024/03/01 13:55:13;;;;;;;15.25;10.32;;;;;;;;;;5825589;28;20049;-81
2024/03/01 13:58:05;;;;;;;20.67;9.63;;;;;;;;;;5842687;28;20046;-79
2024/03/01 14:00:58;;;;;;;26.98;10.98;;;;;;;;;;5825488;28;20046;-80
2024/03/01 14:03:58;;;;;;;16.95;11.48;;;;;;;;;;5825526;28;20053;-80
2024/03/01 14:06:50;;;;;;;21.70;11.43;;;;;;;;;;5825822;28;20042;-80
2024/03/01 14:09:46;;;;;;;17.63;10.00;;;;;;;;;;5824980;28;20049;-80
2024/03/01 14:12:38;;;;;;;16.45;10.48;;;;;;;;;;5842212;28;20052;-81
2024/03/01 14:15:29;;;;;;;16.20;10.52;;;;;;;;;;5841204;28;20124;-81
2024/03/01 14:18:20;;;;;;;30.13;11.48;;;;;;;;;;5840757;28;20136;-80
2024/03/01 14:21:14;;;;;;;21.77;13.32;;;;;;;;;;5842341;28;20135;-80
2024/03/01 14:24:07;;;;;;;31.00;18.45;;;;;;;;;;5840755;28;20526;-80
2024/03/01 14:26:58;;;;;;;24.40;13.88;;;;;;;;;;5841111;28;20523;-80
2024/03/01 14:29:50;;;;;;;23.17;14.05;;;;;;;;;;5840598;28;20049;-80
2024/03/01 14:32:44;;;;;;;19.75;13.15;;;;;;;;;;5840534;28;20042;-80
2024/03/01 14:35:36;;;;;;;36.20;13.73;;;;;;;;;;5824539;28;20046;-80
2024/03/01 14:38:26;;;;;;;23.88;13.75;;;;;;;;;;5840200;28;20042;-80
2024/03/01 14:41:18;;;;;;;27.60;13.15;;;;;;;;;;5824399;28;20065;-80
2024/03/01 14:44:09;;;;;;;31.80;17.75;;;;;;;;;;5840052;28;20057;-80
2024/03/01 14:47:14;;;;;;;63.97;28.10;;;;;;;;;;5840852;28;20050;-80
2024/03/01 14:50:06;;;;;;;42.50;20.30;;;;;;;;;;5863413;28;20049;-79
2024/03/01 14:53:37;;;;;;;27.05;19.13;;;;;;;;;;5863466;28;20053;-80
2024/03/01 14:56:28;;;;;;;41.72;20.00;;;;;;;;;;5844715;28;20503;-80
2024/03/01 14:59:19;;;;;;;22.95;15.88;;;;;;;;;;5863037;28;20061;-79
2024/03/01 15:02:10;;;;;;;43.53;25.98;;;;;;;;;;5879401;28;20056;-80
2024/03/01 15:05:03;;;;;;;34.13;19.70;;;;;;;;;;5863907;28;20041;-78
2024/03/01 15:07:54;;;;;;;27.80;19.05;;;;;;;;;;5847803;28;20056;-78
2024/03/01 15:10:45;;;;;;;23.63;17.85;;;;;;;;;;5863395;28;20136;-78
2024/03/01 15:13:37;;;;;;;15.48;10.98;;;;;;;;;;5863480;28;20057;-79
2024/03/01 15:16:30;;;;;;;26.70;13.77;;;;;;;;;;5862519;28;20045;-78
2024/03/01 15:19:21;;;;;;;36.58;18.25;;;;;;;;;;5862637;28;20076;-78
2024/03/01 15:22:12;;;;;;;21.67;15.95;;;;;;;;;;5848108;28;20404;-78
2024/03/01 15:25:10;;;;;;;33.30;12.15;;;;;;;;;;5864898;28;20048;-78
2024/03/01 15:28:02;;;;;;;33.00;17.50;;;;;;;;;;5864085;28;20148;-78
2024/03/01 15:30:54;;;;;;;22.60;15.13;;;;;;;;;;5864133;28;20500;-78
2024/03/01 15:33:45;;;;;;;26.98;15.65;;;;;;;;;;5863181;28;20049;-79
2024/03/01 15:36:36;;;;;;;21.50;15.15;;;;;;;;;;5840647;28;20132;-78
2024/03/01 15:39:27;;;;;;;20.98;13.43;;;;;;;;;;5839536;28;20563;-79
2024/03/01 15:42:18;;;;;;;15.98;11.15;;;;;;;;;;5839449;28;20141;-79
2024/03/01 15:45:09;;;;;;;24.25;13.23;;;;;;;;;;5822717;28;20041;-78
2024/03/01 15:48:00;;;;;;;23.42;12.77;;;;;;;;;;5839379;28;20046;-78
2024/03/01 15:50:52;;;;;;;25.13;14.68;;;;;;;;;;5856029;28;20076;-79
2024/03/01 15:53:44;;;;;;;22.73;13.45;;;;;;;;;;5818849;28;20049;-79
2024/03/01 15:56:35;;;;;;;25.35;12.73;;;;;;;;;;5832956;28;20045;-79
2024/03/01 15:59:25;;;;;;;21.05;13.93;;;;;;;;;;5819641;28;20400;-79
2024/03/01 16:02:19;;;;;;;36.25;12.52;;;;;;;;;;5837432;28;20495;-80
2024/03/01 16:05:10;;;;;;;29.70;15.07;;;;;;;;;;5839710;28;20129;-79
2024/03/01 16:08:01;;;;;;;23.08;15.38;;;;;;;;;;5822196;28;20412;-79
2024/03/01 16:10:58;;;;;;;32.78;15.75;;;;;;;;;;5838229;28;20362;-80
2024/03/01 16:13:50;;;;;;;29.98;16.83;;;;;;;;;;5861985;28;20041;-80
2024/03/01 16:16:41;;;;;;;32.35;14.55;;;;;;;;;;5861561;28;20388;-80
2024/03/01 16:19:32;;;;;;;40.67;17.10;;;;;;;;;;5861599;28;20415;-80
2024/03/01 16:22:23;;;;;;;34.00;14.80;;;;;;;;;;5845494;28;20041;-80
2024/03/01 16:25:15;;;;;;;25.50;15.07;;;;;;;;;;5861467;28;20053;-80
2024/03/01 16:28:22;;;;;;;33.53;15.50;;;;;;;;;;5861484;28;20049;-80
2024/03/01 16:31:13;;;;;;;22.65;14.68;;;;;;;;;;5845406;28;20415;-80
2024/03/01 16:34:04;;;;;;;23.13;14.23;;;;;;;;;;5861335;28;20124;-80
2024/03/01 16:36:56;;;;;;;29.05;16.38;;;;;;;;;;5861731;28;20049;-80
2024/03/01 16:39:47;;;;;;;20.98;14.75;;;;;;;;;;5862532;28;20041;-80
2024/03/01 16:42:43;;;;;;;22.27;14.05;;;;;;;;;;5861196;28;20045;-80
2024/03/01 16:45:37;;;;;;;21.70;11.35;;;;;;;;;;5861846;28;20053;-80
2024/03/01 16:48:45;;;;;;;21.70;12.77;;;;;;;;;;5861411;28;20052;-81
2024/03/01 16:51:42;;;;;;;19.75;12.85;;;;;;;;;;5862071;28;20495;-80
2024/03/01 16:54:34;;;;;;;18.80;12.70;;;;;;;;;;5864687;28;20037;-80
2024/03/01 16:57:29;;;;;;;23.45;15.20;;;;;;;;;;5868012;28;20049;-80
2024/03/01 17:00:19;;;;;;;20.38;11.88;;;;;;;;;;5849942;28;20056;-81
2024/03/01 17:03:34;;;;;;;53.20;25.38;;;;;;;;;;5865999;28;20041;-80
2024/03/01 17:06:25;;;;;;;26.13;15.18;;;;;;;;;;5865845;28;20045;-80
2024/03/01 17:09:20;;;;;;;28.58;12.85;;;;;;;;;;5849601;28;20045;-80
2024/03/01 17:12:13;;;;;;;23.83;13.80;;;;;;;;;;5867413;28;20132;-81